Time;durP1;ratioP1;P1;durP2;ratioP2;P2;SDS_P1;SDS_P2;PMS_P1;PMS_P2;Temp;Humidity;BMP_temperature;BMP_pressure;BME280_temperature;BME280_humidity;BME280_pressure;Samples;Min_cycle;Max_cycle;Signal;HPM_P1;HPM_P2
2021/12/17 00:01:15;;;;;;;9.40;3.63;;;12.10;82.90;;;;;;10393597;28;20263;-90
2021/12/17 00:11:28;;;;;;;7.23;3.57;;;11.40;89.50;;;;;;10418535;28;20247;-91
2021/12/17 00:16:36;;;;;;;9.80;3.60;;;12.10;87.60;;;;;;10437948;28;20698;-89
2021/12/17 00:48:37;;;;;;;5.53;2.87;;;13.20;83.30;;;;;;10392732;28;20249;-89
2021/12/17 00:53:40;;;;;;;7.23;3.23;;;13.00;83.10;;;;;;10409260;28;20281;-90
2021/12/17 00:58:42;;;;;;;5.10;2.80;;;13.40;82.50;;;;;;10449611;28;20286;-90
2021/12/17 01:03:46;;;;;;;6.93;2.57;;;13.40;82.30;;;;;;10414966;28;20251;-89
2021/12/17 01:08:50;;;;;;;7.63;3.20;;;13.50;81.50;;;;;;10413490;28;20289;-90
2021/12/17 01:13:56;;;;;;;4.33;2.60;;;13.50;81.40;;;;;;10383877;28;20775;-90
2021/12/17 01:19:45;;;;;;;6.93;4.37;;;13.60;81.00;;;;;;10409375;28;20378;-89
2021/12/17 01:25:07;;;;;;;7.13;3.17;;;13.40;81.00;;;;;;10396455;28;20317;-89
2021/12/17 01:35:58;;;;;;;7.43;3.23;;;13.50;81.00;;;;;;10408350;28;20652;-89
2021/12/17 01:46:37;;;;;;;5.27;3.07;;;13.40;80.90;;;;;;10431414;28;20265;-89
2021/12/17 02:02:24;;;;;;;6.90;3.40;;;13.30;81.30;;;;;;10429157;28;20229;-90
2021/12/17 02:07:27;;;;;;;7.20;3.00;;;13.40;80.90;;;;;;10392278;28;20228;-89
2021/12/17 02:13:05;;;;;;;9.60;3.13;;;13.40;80.60;;;;;;10376657;28;20678;-89
2021/12/17 02:28:46;;;;;;;6.77;3.00;;;13.00;81.40;;;;;;10425634;28;20807;-89
2021/12/17 02:33:49;;;;;;;6.30;3.03;;;13.20;81.00;;;;;;10425403;28;20688;-89
2021/12/17 02:39:03;;;;;;;7.37;2.40;;;13.30;80.70;;;;;;10421955;28;20253;-90
2021/12/17 02:49:45;;;;;;;5.47;3.00;;;13.20;80.70;;;;;;10437892;28;20231;-90
2021/12/17 02:54:48;;;;;;;7.13;3.10;;;13.10;81.30;;;;;;10435543;28;20254;-90
2021/12/17 02:59:51;;;;;;;6.93;3.27;;;13.10;81.10;;;;;;10420650;28;20238;-89
2021/12/17 03:04:55;;;;;;;6.67;3.60;;;13.00;81.40;;;;;;10409673;28;20259;-90
2021/12/17 03:10:05;;;;;;;6.07;2.60;;;13.00;81.40;;;;;;10438079;28;20299;-88
2021/12/17 03:25:42;;;;;;;5.17;2.77;;;12.90;82.10;;;;;;10413032;28;20244;-90
2021/12/17 03:30:46;;;;;;;8.33;3.37;;;12.90;82.20;;;;;;10419918;28;20282;-90
2021/12/17 03:35:50;;;;;;;9.97;3.17;;;12.90;81.50;;;;;;10413983;28;20198;-90
2021/12/17 03:41:05;;;;;;;5.70;2.50;;;12.90;81.80;;;;;;10398765;28;20291;-90
2021/12/17 03:46:17;;;;;;;5.27;2.50;;;13.10;81.30;;;;;;10387874;28;20708;-90
2021/12/17 03:51:24;;;;;;;6.50;3.83;;;13.00;81.50;;;;;;10396410;28;20617;-90
2021/12/17 03:56:27;;;;;;;7.97;3.47;;;13.00;81.30;;;;;;10396431;28;20198;-89
2021/12/17 04:01:29;;;;;;;6.80;2.87;;;13.20;80.90;;;;;;10397396;28;20213;-89
2021/12/17 04:06:32;;;;;;;8.90;3.07;;;13.40;80.10;;;;;;10421776;28;20229;-89
2021/12/17 04:12:11;;;;;;;5.13;2.93;;;13.50;78.90;;;;;;10418395;28;20205;-90
2021/12/17 04:17:41;;;;;;;9.00;3.50;;;13.60;79.40;;;;;;10401470;28;20224;-90
2021/12/17 04:22:44;;;;;;;5.23;2.77;;;13.50;79.10;;;;;;10406928;28;20937;-90
2021/12/17 04:27:46;;;;;;;11.80;3.47;;;13.50;79.30;;;;;;10406167;28;20254;-90
2021/12/17 04:32:49;;;;;;;6.87;2.47;;;13.30;78.40;;;;;;10417090;28;20202;-89
2021/12/17 04:37:53;;;;;;;5.83;3.07;;;13.20;78.40;;;;;;10431778;28;20209;-90
2021/12/17 04:43:09;;;;;;;5.37;3.07;;;13.20;79.10;;;;;;10416282;28;20538;-90
2021/12/17 04:59:11;;;;;;;9.43;2.97;;;13.30;79.10;;;;;;10418402;28;20220;-90
2021/12/17 05:04:14;;;;;;;11.37;3.00;;;13.10;79.70;;;;;;10408595;28;20238;-90
2021/12/17 05:09:30;;;;;;;5.33;2.60;;;13.20;79.30;;;;;;10451292;28;20190;-90
2021/12/17 05:19:55;;;;;;;5.50;2.57;;;13.10;79.80;;;;;;10463158;28;20218;-90
2021/12/17 05:24:57;;;;;;;7.57;2.93;;;12.80;80.60;;;;;;10467450;28;20209;-90
2021/12/17 05:30:00;;;;;;;11.90;2.93;;;12.90;80.30;;;;;;10447783;28;20209;-90
2021/12/17 05:35:06;;;;;;;15.90;4.03;;;12.10;82.20;;;;;;10448646;28;20232;-90
2021/12/17 05:40:09;;;;;;;10.13;3.33;;;11.60;79.80;;;;;;10430695;28;20185;-89
2021/12/17 05:50:38;;;;;;;7.53;3.40;;;12.90;80.70;;;;;;10466930;28;20200;-90
2021/12/17 05:55:41;;;;;;;10.83;3.07;;;13.00;79.90;;;;;;10481511;28;20188;-91
2021/12/17 06:00:45;;;;;;;7.43;3.37;;;11.90;82.90;;;;;;10487652;28;20213;-91
2021/12/17 06:06:24;;;;;;;6.70;2.43;;;12.10;81.60;;;;;;10483672;28;20236;-89
2021/12/17 06:11:26;;;;;;;8.27;3.10;;;12.00;83.30;;;;;;10498056;28;20173;-89
2021/12/17 06:16:30;;;;;;;9.00;2.60;;;12.70;80.90;;;;;;10462125;28;20227;-89
2021/12/17 06:21:33;;;;;;;12.83;3.57;;;12.30;82.40;;;;;;10456151;28;20211;-89
2021/12/17 06:26:35;;;;;;;9.53;2.73;;;12.20;78.20;;;;;;10485201;28;20207;-89
2021/12/17 06:31:40;;;;;;;8.90;3.50;;;12.80;79.20;;;;;;10481349;28;20180;-89
2021/12/17 06:36:43;;;;;;;7.60;3.03;;;12.60;80.40;;;;;;10493561;28;20205;-89
2021/12/17 06:41:45;;;;;;;8.10;3.37;;;12.90;79.90;;;;;;10462249;28;20219;-89
2021/12/17 06:58:15;;;;;;;4.53;2.43;;;12.80;80.20;;;;;;10496237;28;20222;-90
2021/12/17 07:24:14;;;;;;;8.10;2.97;;;12.70;79.40;;;;;;10547930;28;20714;-79
2021/12/17 07:30:46;;;;;;;7.03;2.40;;;11.80;81.50;;;;;;10548055;28;20237;-79
2021/12/17 07:40:07;;;;;;;6.73;2.90;;;11.10;84.30;;;;;;10546119;28;20236;-79
2021/12/17 07:45:19;;;;;;;5.97;2.83;;;11.50;84.00;;;;;;10544390;28;20282;-79
2021/12/17 07:50:31;;;;;;;6.40;2.30;;;10.80;83.60;;;;;;10547939;28;20278;-79
2021/12/17 07:56:05;;;;;;;11.30;2.83;;;11.80;83.40;;;;;;10544669;28;20742;-79
2021/12/17 08:01:12;;;;;;;9.50;3.23;;;12.70;80.80;;;;;;10533064;28;20235;-79
2021/12/17 08:06:17;;;;;;;5.60;2.40;;;12.20;79.60;;;;;;10566586;28;20256;-79
2021/12/17 08:11:54;;;;;;;8.50;2.67;;;13.00;79.60;;;;;;10548606;28;20233;-79
2021/12/17 08:17:37;;;;;;;6.00;2.27;;;12.70;75.80;;;;;;10535031;28;20225;-79
2021/12/17 08:28:09;;;;;;;9.37;2.93;;;12.90;78.30;;;;;;10553419;28;20630;-79
2021/12/17 08:33:19;;;;;;;12.10;4.93;;;12.80;75.30;;;;;;10519961;28;20262;-79
2021/12/17 08:38:25;;;;;;;7.77;2.40;;;11.30;77.20;;;;;;10520245;28;20210;-79
2021/12/17 08:43:29;;;;;;;5.97;2.13;;;12.50;79.60;;;;;;10519009;28;20608;-79
2021/12/17 08:48:32;;;;;;;6.33;3.00;;;12.10;80.60;;;;;;10503232;28;20640;-79
2021/12/17 08:53:54;;;;;;;10.50;3.43;;;11.70;79.90;;;;;;10522426;28;20745;-79
2021/12/17 08:59:05;;;;;;;4.67;2.60;;;12.00;80.40;;;;;;10518582;28;20667;-79
2021/12/17 09:04:27;;;;;;;14.17;5.23;;;11.30;86.20;;;;;;10542499;28;20254;-79
2021/12/17 09:09:31;;;;;;;5.23;2.07;;;10.80;83.30;;;;;;10587481;27;20259;-79
2021/12/17 09:14:45;;;;;;;8.53;2.90;;;11.80;84.20;;;;;;10523102;28;20655;-80
2021/12/17 09:20:11;;;;;;;5.00;2.53;;;12.80;80.20;;;;;;10516906;28;20237;-79
2021/12/17 09:25:15;;;;;;;30.33;11.40;;;12.10;80.00;;;;;;10514215;28;20249;-79
2021/12/17 09:30:29;;;;;;;8.17;2.93;;;11.80;79.90;;;;;;10498019;28;20612;-79
2021/12/17 09:35:31;;;;;;;22.77;8.77;;;12.50;80.70;;;;;;10533700;28;20253;-78
2021/12/17 09:40:34;;;;;;;12.67;4.60;;;12.40;73.90;;;;;;10539511;28;20240;-79
2021/12/17 09:45:36;;;;;;;7.83;4.87;;;11.80;80.40;;;;;;10519541;28;20256;-80
2021/12/17 09:50:39;;;;;;;16.47;6.97;;;10.60;87.10;;;;;;10515658;28;20225;-80
2021/12/17 09:55:41;;;;;;;7.33;3.43;;;10.60;82.30;;;;;;10515064;28;20670;-79
2021/12/17 10:00:44;;;;;;;15.77;5.00;;;11.00;85.20;;;;;;10514212;28;20287;-79
2021/12/17 10:05:47;;;;;;;31.33;6.40;;;10.50;85.90;;;;;;10543101;28;20241;-78
2021/12/17 10:10:58;;;;;;;5.70;2.97;;;10.40;84.90;;;;;;10571562;28;20283;-79
2021/12/17 10:16:06;;;;;;;6.43;2.60;;;11.00;87.60;;;;;;10532663;28;20733;-78
2021/12/17 10:21:18;;;;;;;8.27;2.90;;;12.00;83.30;;;;;;10515801;28;20691;-78
2021/12/17 10:26:21;;;;;;;20.57;6.30;;;8.80;88.60;;;;;;10525527;28;20276;-78
2021/12/17 10:31:26;;;;;;;9.37;3.60;;;7.90;91.20;;;;;;10508957;28;20229;-79
2021/12/17 10:36:37;;;;;;;5.73;3.47;;;10.70;87.80;;;;;;10542542;28;20229;-79
2021/12/17 10:41:49;;;;;;;7.67;3.20;;;12.00;87.10;;;;;;10513626;28;20217;-80
2021/12/17 10:47:29;;;;;;;8.73;3.43;;;12.50;84.80;;;;;;10528153;28;20718;-79
2021/12/17 10:52:41;;;;;;;7.70;2.53;;;11.50;84.00;;;;;;10510728;28;20264;-79
2021/12/17 10:57:47;;;;;;;6.37;2.80;;;12.50;83.90;;;;;;10531324;28;20221;-79
2021/12/17 11:02:52;;;;;;;21.00;5.97;;;12.20;83.70;;;;;;10530428;28;20238;-80
2021/12/17 11:07:55;;;;;;;16.87;5.50;;;12.30;81.00;;;;;;10512596;28;21004;-79
2021/12/17 11:12:57;;;;;;;6.80;2.80;;;10.80;78.90;;;;;;10512932;28;20217;-79
2021/12/17 11:18:03;;;;;;;16.80;4.73;;;11.10;90.00;;;;;;10512412;28;20295;-79
2021/12/17 11:23:12;;;;;;;12.00;3.50;;;10.40;78.70;;;;;;10512046;28;20230;-79
2021/12/17 11:28:14;;;;;;;5.43;2.73;;;11.90;80.10;;;;;;10511688;28;20275;-80
2021/12/17 11:33:17;;;;;;;11.70;3.50;;;13.00;81.80;;;;;;10511994;28;20221;-79
2021/12/17 11:38:41;;;;;;;7.27;2.80;;;12.50;80.00;;;;;;10519889;28;20639;-79
2021/12/17 11:44:08;;;;;;;6.40;2.87;;;12.70;81.50;;;;;;10522360;28;20288;-80
2021/12/17 11:49:15;;;;;;;12.57;3.97;;;13.30;78.50;;;;;;10568228;28;20247;-78
2021/12/17 11:54:26;;;;;;;3.83;2.57;;;12.10;77.10;;;;;;10534734;28;20315;-79
2021/12/17 11:59:29;;;;;;;7.03;2.70;;;12.60;81.10;;;;;;10520442;28;20234;-79
2021/12/17 12:04:34;;;;;;;6.60;2.63;;;12.10;83.50;;;;;;10537073;28;20235;-79
2021/12/17 12:10:09;;;;;;;7.83;2.63;;;12.60;81.00;;;;;;10505414;28;20272;-79
2021/12/17 12:15:20;;;;;;;6.47;2.90;;;12.20;82.00;;;;;;10514646;28;20332;-79
2021/12/17 12:20:48;;;;;;;6.70;2.70;;;12.10;81.60;;;;;;10551795;28;20558;-78
2021/12/17 12:26:05;;;;;;;7.40;2.60;;;11.80;78.50;;;;;;10535739;28;20259;-79
2021/12/17 12:31:08;;;;;;;7.10;2.90;;;12.30;79.20;;;;;;10537530;28;20661;-79
2021/12/17 12:36:10;;;;;;;15.60;5.43;;;12.90;80.40;;;;;;10499189;28;20687;-80
2021/12/17 12:41:14;;;;;;;7.60;3.30;;;12.50;78.30;;;;;;10537401;28;20632;-80
2021/12/17 12:46:56;;;;;;;8.27;3.07;;;13.00;79.80;;;;;;10536216;28;20253;-79
2021/12/17 12:52:21;;;;;;;5.27;2.47;;;12.40;79.40;;;;;;10518945;28;20234;-79
2021/12/17 12:57:24;;;;;;;9.20;3.70;;;12.50;79.80;;;;;;10520029;28;20259;-80
2021/12/17 13:02:27;;;;;;;27.03;7.33;;;10.10;88.60;;;;;;10513320;28;20234;-79
2021/12/17 13:07:37;;;;;;;26.93;9.57;;;10.40;84.60;;;;;;10514558;28;20719;-79
2021/12/17 13:12:46;;;;;;;5.17;2.93;;;11.40;78.60;;;;;;10532911;28;20225;-80
2021/12/17 13:23:23;;;;;;;4.80;2.17;;;11.90;82.60;;;;;;10514929;28;20241;-80
2021/12/17 13:28:25;;;;;;;9.50;3.73;;;12.20;83.30;;;;;;10532161;28;20697;-80
2021/12/17 13:33:38;;;;;;;6.10;2.90;;;11.50;83.60;;;;;;10515134;28;20229;-81
2021/12/17 13:38:42;;;;;;;6.20;2.83;;;12.60;80.80;;;;;;10513894;28;20628;-81
2021/12/17 13:43:44;;;;;;;7.87;3.60;;;12.30;79.80;;;;;;10528667;28;20782;-79
2021/12/17 13:48:46;;;;;;;9.80;3.83;;;11.30;85.50;;;;;;10513247;28;20758;-79
2021/12/17 13:53:49;;;;;;;17.40;5.40;;;10.70;82.60;;;;;;10531548;28;20647;-79
2021/12/17 13:59:11;;;;;;;8.67;3.00;;;11.70;77.50;;;;;;10531136;28;20276;-79
2021/12/17 14:04:14;;;;;;;7.47;2.13;;;11.00;87.30;;;;;;10529654;28;20290;-80
2021/12/17 14:09:18;;;;;;;6.07;2.53;;;12.00;83.80;;;;;;10530637;28;20245;-80
2021/12/17 14:14:33;;;;;;;9.73;2.60;;;12.50;80.00;;;;;;10510660;28;20252;-80
2021/12/17 14:20:09;;;;;;;14.33;4.87;;;12.10;82.60;;;;;;10494244;28;20230;-79
2021/12/17 14:25:33;;;;;;;7.07;2.73;;;10.20;80.20;;;;;;10495589;28;22537;-80
2021/12/17 14:30:36;;;;;;;7.13;2.40;;;11.80;84.20;;;;;;10511996;28;20248;-80
2021/12/17 14:35:39;;;;;;;6.13;2.70;;;12.70;81.00;;;;;;10528792;28;20257;-80
2021/12/17 14:40:53;;;;;;;5.07;2.83;;;13.20;79.20;;;;;;10527009;28;20628;-80
2021/12/17 14:46:21;;;;;;;4.87;2.40;;;13.10;78.70;;;;;;10490090;28;20240;-80
2021/12/17 15:02:37;;;;;;;7.77;2.70;;;13.20;77.80;;;;;;10509172;28;20584;-80
2021/12/17 15:07:35;;;;;;;6.67;3.07;;;13.20;77.90;;;;;;10523800;28;20295;-80
2021/12/17 15:12:38;;;;;;;12.43;3.50;;;13.00;78.60;;;;;;10490701;28;20240;-80
2021/12/17 15:17:42;;;;;;;4.63;2.43;;;12.60;76.30;;;;;;10510464;28;20259;-80
2021/12/17 15:22:54;;;;;;;6.73;2.53;;;13.20;77.40;;;;;;10523786;28;20650;-80
2021/12/17 15:27:57;;;;;;;5.27;2.37;;;13.20;77.30;;;;;;10513904;28;20723;-80
2021/12/17 15:33:00;;;;;;;9.97;3.33;;;13.30;77.10;;;;;;10536723;28;20223;-81
2021/12/17 15:38:07;;;;;;;5.13;2.50;;;13.00;74.70;;;;;;10517888;28;20701;-80
2021/12/17 15:43:11;;;;;;;5.17;2.77;;;12.20;78.50;;;;;;10518410;28;20258;-80
2021/12/17 15:48:16;;;;;;;7.57;2.50;;;13.00;78.30;;;;;;10518935;28;20635;-80
2021/12/17 15:53:35;;;;;;;11.07;3.27;;;12.20;79.80;;;;;;10520111;28;20225;-80
2021/12/17 15:58:38;;;;;;;6.73;2.53;;;11.80;79.70;;;;;;10538039;28;20263;-80
2021/12/17 16:03:42;;;;;;;4.07;2.37;;;12.60;78.70;;;;;;10166881;28;9999998;-80
2021/12/17 16:08:49;;;;;;;12.07;4.40;;;13.20;77.10;;;;;;10516503;28;20258;-79
2021/12/17 16:24:44;;;;;;;6.60;2.83;;;12.30;79.30;;;;;;10404795;28;20247;-79
2021/12/17 16:29:47;;;;;;;12.53;4.37;;;12.00;80.90;;;;;;10414013;28;20270;-78
2021/12/17 16:34:49;;;;;;;7.17;2.97;;;11.70;80.50;;;;;;10426189;28;20225;-79
2021/12/17 16:39:52;;;;;;;26.03;7.43;;;12.10;80.50;;;;;;10428244;28;20700;-79
2021/12/17 16:49:59;;;;;;;6.00;2.53;;;11.10;83.40;;;;;;10403270;28;20301;-79
2021/12/17 16:55:05;;;;;;;11.50;4.63;;;11.80;82.10;;;;;;10480041;28;20761;-78
2021/12/17 17:00:09;;;;;;;8.50;3.40;;;11.50;73.60;;;;;;10533779;28;20278;-79
2021/12/17 17:05:11;;;;;;;6.00;2.90;;;10.50;88.20;;;;;;10492526;28;20230;-78
2021/12/17 17:10:14;;;;;;;6.40;2.93;;;12.40;80.20;;;;;;10524407;28;20267;-79
2021/12/17 17:15:17;;;;;;;5.10;2.93;;;11.60;79.90;;;;;;10532604;28;20307;-79
2021/12/17 17:20:20;;;;;;;5.13;2.70;;;12.50;79.50;;;;;;10533160;28;20233;-79
2021/12/17 17:25:22;;;;;;;7.97;3.33;;;10.40;85.70;;;;;;10513651;28;20689;-79
2021/12/17 17:30:25;;;;;;;4.03;2.27;;;11.10;79.50;;;;;;10514216;28;20298;-79
2021/12/17 17:35:27;;;;;;;4.83;2.67;;;10.90;84.60;;;;;;10532833;28;20237;-79
2021/12/17 17:40:35;;;;;;;11.53;3.30;;;11.70;81.20;;;;;;10532462;28;20237;-79
2021/12/17 17:45:40;;;;;;;7.60;3.43;;;12.00;76.80;;;;;;10534199;28;20748;-79
2021/12/17 17:50:43;;;;;;;18.60;6.10;;;11.80;80.10;;;;;;10514155;28;20238;-78
2021/12/17 17:55:45;;;;;;;10.37;4.63;;;11.50;74.30;;;;;;10531611;28;20290;-79
2021/12/17 18:00:48;;;;;;;6.30;2.97;;;11.70;79.00;;;;;;10531837;28;20222;-80
2021/12/17 18:05:53;;;;;;;4.63;2.67;;;12.40;77.80;;;;;;10530584;28;20270;-80
2021/12/17 18:10:56;;;;;;;11.27;4.30;;;11.90;81.00;;;;;;10528416;28;20217;-79
2021/12/17 18:16:00;;;;;;;18.67;6.50;;;10.30;78.50;;;;;;10549029;28;20249;-78
2021/12/17 18:21:03;;;;;;;12.93;5.07;;;10.60;77.40;;;;;;10563725;28;20252;-79
2021/12/17 18:26:05;;;;;;;10.90;4.90;;;10.00;84.60;;;;;;10512534;28;20298;-78
2021/12/17 18:31:07;;;;;;;9.87;5.10;;;9.50;82.70;;;;;;10529976;28;20286;-79
2021/12/17 18:36:11;;;;;;;9.87;4.13;;;10.10;89.70;;;;;;10494489;28;20263;-79
2021/12/17 18:41:22;;;;;;;6.23;3.27;;;9.20;90.50;;;;;;10512550;28;20294;-79
2021/12/17 18:46:25;;;;;;;18.40;6.13;;;10.20;87.30;;;;;;10530735;28;20302;-79
2021/12/17 18:51:27;;;;;;;13.57;4.63;;;10.30;80.90;;;;;;10528405;28;20229;-79
2021/12/17 18:56:30;;;;;;;12.13;4.80;;;10.30;82.30;;;;;;10529164;28;20228;-79
2021/12/17 19:01:33;;;;;;;7.20;3.47;;;9.20;83.60;;;;;;10511455;28;20232;-79
2021/12/17 19:06:45;;;;;;;10.67;4.67;;;10.90;83.50;;;;;;10513960;28;20279;-79
2021/12/17 19:11:51;;;;;;;8.70;3.97;;;8.00;87.50;;;;;;10529290;28;20637;-79
2021/12/17 19:16:54;;;;;;;16.00;6.10;;;8.60;88.60;;;;;;10531695;28;20274;-81
2021/12/17 19:27:02;;;;;;;20.60;4.87;;;6.00;99.90;;;;;;10532691;28;20294;-79
2021/12/17 19:32:05;;;;;;;9.70;3.50;;;8.30;99.70;;;;;;10513713;28;20231;-80
2021/12/17 19:37:08;;;;;;;6.67;3.47;;;9.10;99.90;;;;;;10530739;28;20251;-78
2021/12/17 19:42:10;;;;;;;10.47;3.93;;;10.90;99.30;;;;;;10531775;28;20282;-79
2021/12/17 19:52:19;;;;;;;8.63;3.63;;;10.80;93.70;;;;;;10512483;28;20205;-79
2021/12/17 19:57:23;;;;;;;12.47;4.60;;;12.00;90.50;;;;;;10482233;28;20224;-80
2021/12/17 20:02:25;;;;;;;8.07;4.27;;;12.40;88.30;;;;;;10532395;28;20197;-81
2021/12/17 20:07:28;;;;;;;8.33;4.00;;;11.70;87.50;;;;;;10530900;28;20776;-80
2021/12/17 20:12:30;;;;;;;10.37;4.07;;;11.30;88.10;;;;;;10514953;28;20214;-80
2021/12/17 20:17:33;;;;;;;14.60;5.77;;;11.00;90.60;;;;;;10521742;28;20306;-79
2021/12/17 20:22:38;;;;;;;12.83;5.10;;;8.90;85.20;;;;;;10539111;28;20682;-79
2021/12/17 20:27:40;;;;;;;10.77;4.40;;;8.90;95.70;;;;;;10519253;28;20718;-79
2021/12/17 20:32:43;;;;;;;12.13;5.57;;;8.90;94.70;;;;;;10538885;28;20694;-81
2021/12/17 20:37:45;;;;;;;9.17;4.47;;;6.50;94.90;;;;;;10538597;28;20264;-80
2021/12/17 20:42:59;;;;;;;11.90;4.27;;;6.10;99.90;;;;;;10554337;28;20247;-80
2021/12/17 20:48:04;;;;;;;11.80;4.23;;;8.10;99.90;;;;;;10521803;28;20221;-80
2021/12/17 20:53:08;;;;;;;10.17;3.90;;;8.10;99.90;;;;;;10521367;28;20209;-80
2021/12/17 20:58:11;;;;;;;15.73;4.70;;;7.30;99.90;;;;;;10522079;28;20247;-79
2021/12/17 21:03:14;;;;;;;9.13;4.23;;;6.10;99.90;;;;;;10502618;28;20259;-78
2021/12/17 21:08:18;;;;;;;14.90;5.90;;;6.80;99.90;;;;;;10536771;28;20249;-80
2021/12/17 21:13:20;;;;;;;15.10;5.53;;;5.90;99.90;;;;;;10536605;28;20229;-80
2021/12/17 21:18:23;;;;;;;14.50;5.50;;;5.80;99.90;;;;;;10532980;28;20636;-79
2021/12/17 21:23:26;;;;;;;16.57;6.50;;;5.40;99.90;;;;;;10529489;28;20635;-80
2021/12/17 21:28:28;;;;;;;5.90;4.07;;;7.20;98.40;;;;;;10533094;28;20321;-80
2021/12/17 21:33:31;;;;;;;15.57;7.37;;;7.30;99.90;;;;;;10516694;28;20263;-80
2021/12/17 21:38:34;;;;;;;14.77;5.67;;;6.30;99.70;;;;;;10517161;28;20222;-78
2021/12/17 21:43:41;;;;;;;16.97;8.30;;;7.10;99.90;;;;;;10536263;28;20205;-80
2021/12/17 21:48:43;;;;;;;12.50;5.93;;;6.60;98.20;;;;;;10531721;28;20253;-79
2021/12/17 21:53:47;;;;;;;10.20;5.87;;;6.20;99.90;;;;;;10512610;28;20255;-79
2021/12/17 21:58:49;;;;;;;19.93;6.73;;;6.80;99.90;;;;;;10534111;28;20201;-80
2021/12/17 22:03:53;;;;;;;12.67;6.03;;;6.30;99.90;;;;;;10534650;28;20266;-80
2021/12/17 22:08:57;;;;;;;12.57;6.07;;;7.30;99.60;;;;;;10516148;28;20695;-80
2021/12/17 22:13:59;;;;;;;45.50;17.33;;;6.40;99.20;;;;;;10527634;28;20282;-79
2021/12/17 22:19:03;;;;;;;20.87;8.33;;;6.50;97.90;;;;;;10530248;28;20237;-79
2021/12/17 22:24:05;;;;;;;18.90;8.13;;;6.10;99.90;;;;;;10531127;28;20229;-80
2021/12/17 22:29:08;;;;;;;9.20;4.67;;;7.80;99.90;;;;;;10534712;28;20295;-80
2021/12/17 22:34:10;;;;;;;7.23;3.10;;;7.10;99.90;;;;;;10513432;28;20255;-79
2021/12/17 22:39:14;;;;;;;7.27;4.23;;;9.50;99.90;;;;;;10531221;28;20225;-79
2021/12/17 22:44:20;;;;;;;8.17;3.57;;;9.80;97.00;;;;;;10512294;28;20233;-80
2021/12/17 22:49:22;;;;;;;5.60;3.13;;;10.10;97.50;;;;;;10532263;28;20260;-81
2021/12/17 22:54:26;;;;;;;33.20;12.87;;;10.70;94.20;;;;;;10510540;28;20237;-81
2021/12/17 22:59:29;;;;;;;7.20;4.67;;;9.20;86.50;;;;;;10529806;28;20678;-79
2021/12/17 23:04:33;;;;;;;7.67;3.73;;;9.70;95.80;;;;;;10529525;28;20229;-78
2021/12/17 23:09:39;;;;;;;7.97;4.10;;;10.70;93.40;;;;;;10513947;28;20711;-79
2021/12/17 23:14:55;;;;;;;6.93;3.53;;;11.30;91.90;;;;;;10513621;28;20261;-80
2021/12/17 23:19:58;;;;;;;9.73;4.50;;;11.60;90.60;;;;;;10507563;28;20230;-80
2021/12/17 23:25:01;;;;;;;6.27;3.73;;;11.50;90.30;;;;;;10510457;28;20287;-82
2021/12/17 23:30:05;;;;;;;6.93;4.00;;;11.70;90.00;;;;;;10528111;28;20268;-80
2021/12/17 23:35:18;;;;;;;9.07;4.27;;;11.30;90.40;;;;;;10531810;28;20233;-79
2021/12/17 23:40:20;;;;;;;5.37;3.37;;;11.30;90.10;;;;;;10532286;28;20235;-79
2021/12/17 23:45:23;;;;;;;6.90;3.30;;;11.60;89.90;;;;;;10513643;28;20218;-77
2021/12/17 23:50:25;;;;;;;8.20;3.77;;;11.70;88.70;;;;;;10538741;28;20950;-77
2021/12/17 23:55:27;;;;;;;7.97;3.43;;;11.60;88.40;;;;;;10540052;28;20204;-77
